createdAt,value
2022-11-22T00:01:19.193Z,88.24
2022-11-22T00:03:47.195Z,88.04
2022-11-22T00:06:15.684Z,87.23
2022-11-22T00:08:45.043Z,87.09
2022-11-22T00:11:12.960Z,87.35
2022-11-22T00:13:40.949Z,87.21
2022-11-22T00:16:08.858Z,88.61
2022-11-22T00:18:39.374Z,88.29
2022-11-22T00:21:08.113Z,88.65
2022-11-22T00:23:36.212Z,88.28
2022-11-22T00:26:06.990Z,88.71
2022-11-22T00:28:34.985Z,88.68
2022-11-22T00:31:04.179Z,88.65
2022-11-22T00:33:32.162Z,88.23
2022-11-22T00:36:00.270Z,89.05
2022-11-22T00:38:28.212Z,89.30
2022-11-22T00:40:56.114Z,88.35
2022-11-22T00:43:25.507Z,89.05
2022-11-22T00:45:56.098Z,89.08
2022-11-22T00:48:24.157Z,88.58
2022-11-22T00:50:52.180Z,89.41
2022-11-22T00:53:21.893Z,88.36
2022-11-22T00:55:49.927Z,89.26
2022-11-22T00:58:18.100Z,88.87
2022-11-22T01:00:49.162Z,89.52
2022-11-22T01:03:20.217Z,89.13
2022-11-22T01:05:48.139Z,88.83
2022-11-22T01:08:16.091Z,89.22
2022-11-22T01:10:45.475Z,89.32
2022-11-22T01:13:13.588Z,88.50
2022-11-22T01:15:41.771Z,88.77
2022-11-22T01:18:11.119Z,88.57
2022-11-22T01:20:41.123Z,88.33
2022-11-22T01:23:09.129Z,88.62
2022-11-22T01:25:39.480Z,89.03
2022-11-22T01:28:07.444Z,88.93
2022-11-22T01:30:35.365Z,88.78
2022-11-22T01:33:03.293Z,88.68
2022-11-22T01:35:32.583Z,88.44
2022-11-22T01:38:00.465Z,88.20
2022-11-22T01:40:31.532Z,88.43
2022-11-22T01:43:01.234Z,89.49
2022-11-22T01:45:47.568Z,89.25
2022-11-22T01:48:38.907Z,88.38
2022-11-22T01:51:18.099Z,88.27
2022-11-22T01:53:46.491Z,88.87
2022-11-22T01:56:17.799Z,87.65
2022-11-22T01:58:49.609Z,88.16
2022-11-22T02:01:20.698Z,87.22
2022-11-22T02:03:52.804Z,88.29
2022-11-22T02:06:22.632Z,88.08
2022-11-22T02:08:58.554Z,88.81
2022-11-22T02:11:34.123Z,88.51
2022-11-22T02:14:03.970Z,88.58
2022-11-22T02:16:32.698Z,88.17
2022-11-22T02:19:00.699Z,88.28
2022-11-22T02:21:30.546Z,88.53
2022-11-22T02:24:08.072Z,88.27
2022-11-22T02:26:37.482Z,88.28
2022-11-22T02:29:08.765Z,88.51
2022-11-22T02:31:39.938Z,88.04
2022-11-22T02:34:08.366Z,88.29
2022-11-22T02:36:40.712Z,88.38
2022-11-22T02:39:10.804Z,88.75
2022-11-22T02:41:43.459Z,88.20
2022-11-22T02:44:13.079Z,88.72
2022-11-22T02:46:50.791Z,88.62
2022-11-22T02:49:20.489Z,88.69
2022-11-22T02:51:49.213Z,87.66
2022-11-22T02:54:17.436Z,88.63
2022-11-22T02:56:46.911Z,88.37
2022-11-22T02:59:15.075Z,87.59
2022-11-22T03:01:44.895Z,87.98
2022-11-22T03:04:24.537Z,88.42
2022-11-22T03:06:55.544Z,89.07
2022-11-22T03:09:23.735Z,88.54
2022-11-22T03:11:54.273Z,88.73
2022-11-22T03:14:23.757Z,88.74
2022-11-22T03:16:52.398Z,89.05
2022-11-22T03:19:20.567Z,88.95
2022-11-22T03:21:48.578Z,88.22
2022-11-22T03:24:16.619Z,89.06
2022-11-22T03:26:48.519Z,88.87
2022-11-22T03:29:18.683Z,89.19
2022-11-22T03:31:46.680Z,89.30
2022-11-22T03:34:15.599Z,88.51
2022-11-22T03:36:43.740Z,88.90
2022-11-22T03:39:11.729Z,88.62
2022-11-22T03:41:39.804Z,88.98
2022-11-22T03:44:07.945Z,89.35
2022-11-22T03:46:37.417Z,89.56
2022-11-22T03:49:05.407Z,89.28
2022-11-22T03:51:33.498Z,89.76
2022-11-22T03:54:01.541Z,89.01
2022-11-22T03:56:38.842Z,89.25
2022-11-22T03:59:06.928Z,89.53
2022-11-22T04:01:34.966Z,88.80
2022-11-22T04:04:06.215Z,89.92
2022-11-22T04:06:34.644Z,89.57
2022-11-22T04:09:02.630Z,89.26
2022-11-22T04:11:30.586Z,90.17
2022-11-22T04:14:16.345Z,89.40
2022-11-22T04:16:47.147Z,89.37
2022-11-22T04:19:16.523Z,89.77
2022-11-22T04:21:43.476Z,88.66
2022-11-22T04:24:30.422Z,89.58
2022-11-22T04:26:59.191Z,89.70
2022-11-22T04:29:27.373Z,88.47
2022-11-22T04:32:13.436Z,89.03
2022-11-22T04:34:42.829Z,88.49
2022-11-22T04:37:13.191Z,89.42
2022-11-22T04:39:41.186Z,89.53
2022-11-22T04:42:27.856Z,88.99
2022-11-22T04:44:56.460Z,90.12
2022-11-22T04:47:46.057Z,89.04
2022-11-22T04:50:34.675Z,89.36
2022-11-22T04:53:02.649Z,90.39
2022-11-22T04:55:30.681Z,89.51
2022-11-22T04:58:00.161Z,89.97
2022-11-22T05:00:29.049Z,89.93
2022-11-22T05:02:57.118Z,89.17
2022-11-22T05:05:29.559Z,89.71
2022-11-22T05:07:59.760Z,89.18
2022-11-22T05:10:27.899Z,89.48
2022-11-22T05:12:56.280Z,89.99
2022-11-22T05:15:24.238Z,89.83
2022-11-22T05:17:52.258Z,89.47
2022-11-22T05:20:22.131Z,89.91
2022-11-22T05:23:08.841Z,89.60
2022-11-22T05:25:36.905Z,89.95
2022-11-22T05:28:04.873Z,89.68
2022-11-22T05:30:32.831Z,90.34
2022-11-22T05:33:01.079Z,90.03
2022-11-22T05:35:29.275Z,89.32
2022-11-22T05:37:58.789Z,89.83
2022-11-22T05:40:28.000Z,89.91
2022-11-22T05:42:56.249Z,90.16
2022-11-22T05:45:24.290Z,89.67
2022-11-22T05:47:52.327Z,90.40
2022-11-22T05:50:23.464Z,90.05
2022-11-22T05:52:55.700Z,89.05
2022-11-22T05:55:25.028Z,89.63
2022-11-22T05:57:53.145Z,89.40
2022-11-22T06:00:21.467Z,89.98
2022-11-22T06:02:49.482Z,89.19
2022-11-22T06:05:17.538Z,89.08
2022-11-22T06:07:46.373Z,89.60
2022-11-22T06:10:14.449Z,89.56
2022-11-22T06:12:43.697Z,89.74
2022-11-22T06:15:12.252Z,89.68
2022-11-22T06:17:40.281Z,89.32
2022-11-22T06:20:09.872Z,89.82
2022-11-22T06:22:37.911Z,90.48
2022-11-22T06:25:06.980Z,89.45
2022-11-22T06:27:34.929Z,89.73
2022-11-22T06:30:05.395Z,89.63
2022-11-22T06:32:34.890Z,89.54
2022-11-22T06:35:03.780Z,89.30
2022-11-22T06:37:31.931Z,89.46
2022-11-22T06:39:59.986Z,88.77
2022-11-22T06:42:27.945Z,88.75
2022-11-22T06:44:55.937Z,89.46
2022-11-22T06:47:25.215Z,89.64
2022-11-22T06:49:53.202Z,89.20
2022-11-22T06:52:21.112Z,89.13
2022-11-22T06:54:49.035Z,88.97
2022-11-22T06:57:20.318Z,88.97
2022-11-22T06:59:48.289Z,89.50
2022-11-22T07:02:16.244Z,89.58
2022-11-22T07:05:09.442Z,89.30
2022-11-22T07:07:33.676Z,89.32
2022-11-22T07:10:01.680Z,89.51
2022-11-22T07:12:29.530Z,89.08
2022-11-22T07:14:57.707Z,89.29
2022-11-22T07:17:25.651Z,88.43
2022-11-22T07:19:55.008Z,88.18
2022-11-22T07:22:23.264Z,88.87
2022-11-22T07:24:51.353Z,89.00
2022-11-22T07:27:19.342Z,89.01
2022-11-22T07:29:47.289Z,88.14
2022-11-22T07:32:15.319Z,87.94
2022-11-22T07:34:43.252Z,87.72
2022-11-22T07:37:15.236Z,87.64
2022-11-22T07:39:44.563Z,87.27
2022-11-22T07:42:13.034Z,87.28
2022-11-22T07:44:41.230Z,86.78
2022-11-22T07:47:09.167Z,87.39
2022-11-22T07:49:37.298Z,86.46
2022-11-22T07:52:07.349Z,87.60
2022-11-22T07:54:36.688Z,87.09
2022-11-22T07:57:04.898Z,86.88
2022-11-22T07:59:33.011Z,86.69
2022-11-22T08:02:01.045Z,86.13
2022-11-22T08:04:29.115Z,86.26
2022-11-22T08:06:58.279Z,85.75
2022-11-22T08:09:26.383Z,86.12
2022-11-22T08:11:56.859Z,85.46
2022-11-22T08:14:24.996Z,85.32
2022-11-22T08:16:56.245Z,85.62
2022-11-22T08:19:24.223Z,85.38
2022-11-22T08:21:57.067Z,85.70
2022-11-22T08:24:26.551Z,85.81
2022-11-22T08:26:55.862Z,85.77
2022-11-22T08:29:23.943Z,85.20
2022-11-22T08:31:54.937Z,85.38
2022-11-22T08:34:23.245Z,85.05
2022-11-22T08:36:51.317Z,84.48
2022-11-22T08:39:19.410Z,84.85
2022-11-22T08:41:47.416Z,84.82
2022-11-22T08:44:16.846Z,84.79
2022-11-22T08:46:44.849Z,84.26
2022-11-22T08:49:14.215Z,84.88
2022-11-22T08:51:44.869Z,83.88
2022-11-22T08:54:13.070Z,83.52
2022-11-22T08:56:41.139Z,83.58
2022-11-22T08:59:09.247Z,83.58
2022-11-22T09:01:38.719Z,82.96
2022-11-22T09:04:06.959Z,83.91
2022-11-22T09:09:37.320Z,82.74
2022-11-22T09:12:06.711Z,83.40
2022-11-22T09:14:34.798Z,82.28
2022-11-22T09:17:05.784Z,80.80
2022-11-22T09:19:36.588Z,81.43
2022-11-22T09:22:04.740Z,80.64
2022-11-22T09:24:32.913Z,81.55
2022-11-22T09:27:01.026Z,80.64
2022-11-22T09:29:29.763Z,73.06
2022-11-22T09:31:57.888Z,72.75
2022-11-22T09:34:27.254Z,67.60
2022-11-22T09:36:55.237Z,65.34
2022-11-22T09:39:23.300Z,64.04
2022-11-22T09:42:08.130Z,66.89
2022-11-22T09:44:53.489Z,72.07
2022-11-22T09:47:36.888Z,73.34
2022-11-22T09:50:19.401Z,74.42
2022-11-22T09:52:52.190Z,75.58
2022-11-22T09:55:26.402Z,74.08
2022-11-22T09:58:05.594Z,74.05
2022-11-22T10:00:34.170Z,71.60
2022-11-22T10:03:11.527Z,71.97
2022-11-22T10:05:50.416Z,70.82
2022-11-22T10:08:33.565Z,72.69
2022-11-22T10:11:04.883Z,70.97
2022-11-22T10:13:38.616Z,70.76
2022-11-22T10:16:15.196Z,64.58
2022-11-22T10:18:49.174Z,61.44
2022-11-22T10:21:20.171Z,54.72
2022-11-22T10:23:49.252Z,50.46
2022-11-22T10:26:24.907Z,48.94
2022-11-22T10:29:04.391Z,51.41
2022-11-22T10:31:40.330Z,52.27
2022-11-22T10:34:16.496Z,53.99
2022-11-22T10:36:50.482Z,54.59
2022-11-22T10:39:37.177Z,56.40
2022-11-22T10:42:22.323Z,58.97
2022-11-22T10:44:59.898Z,62.10
2022-11-22T10:47:42.107Z,61.22
2022-11-22T10:50:17.553Z,61.53
2022-11-22T10:52:59.012Z,61.89
2022-11-22T10:55:42.786Z,62.94
2022-11-22T10:58:22.001Z,62.76
2022-11-22T11:00:56.496Z,61.42
2022-11-22T11:03:32.875Z,60.88
2022-11-22T11:06:24.480Z,62.31
2022-11-22T11:09:55.019Z,59.62
2022-11-22T11:11:53.137Z,58.62
2022-11-22T11:14:28.747Z,57.12
2022-11-22T11:16:57.573Z,60.26
2022-11-22T11:19:28.968Z,59.22
2022-11-22T11:22:00.765Z,57.19
2022-11-22T11:24:32.531Z,53.77
2022-11-22T11:27:01.561Z,51.04
2022-11-22T11:29:47.811Z,55.52
2022-11-22T11:32:19.830Z,57.38
2022-11-22T11:34:54.799Z,57.16
2022-11-22T11:37:26.181Z,57.85
2022-11-22T11:39:57.186Z,57.12
2022-11-22T11:42:28.971Z,54.31
2022-11-22T11:45:21.776Z,58.65
2022-11-22T11:47:49.854Z,61.02
2022-11-22T11:50:23.951Z,62.78
2022-11-22T11:52:57.209Z,63.30
2022-11-22T11:55:31.672Z,64.98
2022-11-22T11:58:00.028Z,67.06
2022-11-22T12:00:36.250Z,64.29
2022-11-22T12:03:09.759Z,64.58
2022-11-22T12:05:37.678Z,65.43
2022-11-22T12:08:29.433Z,65.76
2022-11-22T12:11:02.846Z,66.75
2022-11-22T12:13:57.608Z,67.55
2022-11-22T12:16:29.829Z,66.43
2022-11-22T12:19:05.955Z,66.01
2022-11-22T12:21:40.196Z,66.00
2022-11-22T12:27:12.133Z,64.90
2022-11-22T12:29:43.635Z,65.22
2022-11-22T12:32:18.840Z,65.37
2022-11-22T12:34:54.910Z,66.40
2022-11-22T12:37:29.287Z,66.22
2022-11-22T12:40:02.535Z,65.87
2022-11-22T12:42:40.303Z,66.68
2022-11-22T12:45:17.997Z,65.92
2022-11-22T12:47:51.313Z,66.04
2022-11-22T12:50:27.849Z,65.79
2022-11-22T12:53:00.354Z,66.55
2022-11-22T12:55:31.764Z,66.51
2022-11-22T12:58:16.070Z,68.13
2022-11-22T13:00:58.277Z,67.55
2022-11-22T13:03:32.975Z,67.29
2022-11-22T13:06:04.595Z,66.94
2022-11-22T13:08:39.025Z,67.22
2022-11-22T13:11:15.606Z,67.26
2022-11-22T13:13:47.456Z,67.40
2022-11-22T13:16:15.933Z,66.52
2022-11-22T13:18:49.163Z,67.65
2022-11-22T13:21:23.316Z,67.09
2022-11-22T13:24:10.096Z,67.30
2022-11-22T13:26:47.367Z,67.13
2022-11-22T13:29:23.733Z,67.66
2022-11-22T13:32:03.145Z,67.94
2022-11-22T13:34:32.072Z,68.60
2022-11-22T13:37:09.091Z,68.41
2022-11-22T13:39:43.465Z,68.48
2022-11-22T13:42:18.144Z,69.01
2022-11-22T13:45:20.512Z,68.33
2022-11-22T13:47:49.183Z,68.33
2022-11-22T13:50:56.679Z,67.84
2022-11-22T13:53:29.982Z,67.53
2022-11-22T13:56:00.263Z,67.59
2022-11-22T13:58:57.669Z,68.37
2022-11-22T14:01:58.103Z,67.99
2022-11-22T14:04:50.212Z,68.13
2022-11-22T14:07:36.001Z,67.71
2022-11-22T14:10:24.285Z,67.90
2022-11-22T14:13:06.253Z,67.13
2022-11-22T14:16:03.704Z,68.11
2022-11-22T14:18:52.695Z,68.33
2022-11-22T14:21:41.502Z,68.95
2022-11-22T14:24:20.435Z,69.43
2022-11-22T14:26:58.460Z,70.39
2022-11-22T14:29:56.326Z,69.46
2022-11-22T14:32:27.599Z,69.44
2022-11-22T14:35:31.407Z,69.91
2022-11-22T14:38:28.560Z,69.68
2022-11-22T14:41:30.890Z,71.07
2022-11-22T14:44:01.667Z,70.56
2022-11-22T14:46:53.551Z,71.02
2022-11-22T14:49:31.793Z,71.42
2022-11-22T14:52:01.548Z,72.06
2022-11-22T14:54:36.316Z,71.37
2022-11-22T14:57:08.500Z,71.41
2022-11-22T15:00:09.157Z,71.48
2022-11-22T15:03:08.898Z,72.24
2022-11-22T15:09:11.859Z,72.10
2022-11-22T15:09:21.646Z,71.95
2022-11-22T15:12:15.282Z,71.83
2022-11-22T15:59:10.800Z,78.47
2022-11-22T16:01:41.202Z,78.57
2022-11-22T16:04:21.598Z,78.69
2022-11-22T16:06:50.662Z,78.43
2022-11-22T16:09:27.915Z,78.76
2022-11-22T16:12:01.478Z,78.42
2022-11-22T16:14:49.484Z,79.06
2022-11-22T16:17:29.356Z,79.25
2022-11-22T16:20:32.982Z,79.34
2022-11-22T16:23:19.896Z,79.18
2022-11-22T16:25:49.866Z,79.98
2022-11-22T16:28:36.511Z,80.94
2022-11-22T16:31:17.053Z,81.46
2022-11-22T16:33:45.454Z,81.70
2022-11-22T16:36:15.044Z,82.16
2022-11-22T16:38:44.031Z,82.42
2022-11-22T16:41:18.329Z,81.55
2022-11-22T16:43:46.703Z,82.83
2022-11-22T16:46:17.378Z,82.43
2022-11-22T16:48:45.616Z,82.96
2022-11-22T16:51:15.963Z,82.24
2022-11-22T16:53:47.006Z,82.13
2022-11-22T16:56:20.336Z,82.02
2022-11-22T16:58:49.412Z,82.07
2022-11-22T17:01:21.906Z,81.18
2022-11-22T17:04:01.612Z,80.65
2022-11-22T17:06:31.661Z,80.11
2022-11-22T17:09:04.648Z,79.76
2022-11-22T17:11:33.470Z,79.36
2022-11-22T17:14:04.271Z,79.35
2022-11-22T17:16:33.604Z,79.07
2022-11-22T17:19:01.689Z,78.51
2022-11-22T17:21:37.048Z,78.11
2022-11-22T17:24:07.621Z,78.31
2022-11-22T17:26:35.729Z,77.75
2022-11-22T17:29:03.812Z,77.72
2022-11-22T17:31:33.190Z,77.77
2022-11-22T17:34:01.229Z,77.42
2022-11-22T17:36:30.873Z,77.50
2022-11-22T17:39:00.602Z,76.90
2022-11-22T17:41:30.360Z,77.47
2022-11-22T17:43:59.045Z,77.17
2022-11-22T17:46:27.807Z,77.26
2022-11-22T17:48:59.699Z,77.06
2022-11-22T17:51:28.606Z,76.67
2022-11-22T17:53:58.219Z,76.17
2022-11-22T17:56:27.057Z,76.39
2022-11-22T17:58:54.962Z,76.43
2022-11-22T18:01:24.027Z,76.29
2022-11-22T18:03:52.446Z,76.08
2022-11-22T18:06:22.609Z,76.31
2022-11-22T18:08:50.854Z,76.01
2022-11-22T18:11:19.141Z,75.64
2022-11-22T18:13:47.299Z,76.22
2022-11-22T18:16:17.317Z,76.00
2022-11-22T18:18:56.732Z,75.84
2022-11-22T18:21:29.080Z,76.16
2022-11-22T18:23:57.723Z,76.71
2022-11-22T18:26:41.882Z,76.87
2022-11-22T18:32:02.320Z,76.20
2022-11-22T18:34:31.045Z,76.59
2022-11-22T18:37:03.495Z,76.54
2022-11-22T18:39:34.254Z,75.82
2022-11-22T18:42:02.615Z,76.24
2022-11-22T18:44:30.719Z,76.17
2022-11-22T18:46:58.810Z,76.04
2022-11-22T18:49:27.001Z,76.29
2022-11-22T18:51:55.647Z,76.74
2022-11-22T18:54:25.361Z,76.68
2022-11-22T18:56:53.846Z,76.54
2022-11-22T18:59:21.813Z,76.51
2022-11-22T19:01:49.985Z,76.29
2022-11-22T19:04:18.832Z,76.40
2022-11-22T19:06:46.927Z,76.19
2022-11-22T19:09:15.124Z,75.99
2022-11-22T19:11:44.464Z,76.11
2022-11-22T19:14:12.611Z,76.66
2022-11-22T19:16:40.585Z,78.69
2022-11-22T19:19:11.852Z,78.25
2022-11-22T19:21:39.952Z,78.67
2022-11-22T19:24:08.023Z,79.39
2022-11-22T19:26:36.025Z,79.50
2022-11-22T19:29:05.368Z,79.74
2022-11-22T19:31:33.789Z,79.74
2022-11-22T19:34:01.806Z,80.11
2022-11-22T19:36:33.847Z,80.23
2022-11-22T19:39:04.460Z,80.17
2022-11-22T19:41:33.181Z,80.19
2022-11-22T19:44:01.535Z,81.03
2022-11-22T19:46:31.445Z,80.58
2022-11-22T19:49:01.056Z,80.74
2022-11-22T19:51:30.915Z,80.79
2022-11-22T19:54:02.153Z,80.58
2022-11-22T19:56:33.173Z,80.84
2022-11-22T19:59:02.736Z,81.10
2022-11-22T20:01:33.729Z,80.83
2022-11-22T20:04:03.632Z,80.73
2022-11-22T20:06:32.567Z,80.56
2022-11-22T20:09:01.872Z,80.37
2022-11-22T20:11:29.890Z,79.78
2022-11-22T20:13:58.004Z,79.78
2022-11-22T20:16:27.923Z,79.72
2022-11-22T20:18:58.389Z,79.07
2022-11-22T20:21:27.685Z,79.07
2022-11-22T20:23:56.684Z,78.53
2022-11-22T20:26:25.477Z,78.39
2022-11-22T20:28:58.145Z,78.62
2022-11-22T20:31:27.527Z,77.99
2022-11-22T20:34:01.382Z,78.33
2022-11-22T20:36:30.947Z,78.05
2022-11-22T20:39:00.408Z,77.71
2022-11-22T20:41:31.382Z,77.69
2022-11-22T20:43:59.398Z,77.32
2022-11-22T20:46:29.110Z,77.02
2022-11-22T20:48:59.190Z,77.05
2022-11-22T20:51:28.676Z,77.15
2022-11-22T20:53:57.413Z,77.23
2022-11-22T20:56:26.147Z,76.88
2022-11-22T20:58:54.524Z,77.02
2022-11-22T21:01:24.096Z,77.56
2022-11-22T21:03:52.963Z,76.70
2022-11-22T21:06:23.905Z,77.40
2022-11-22T21:08:52.138Z,77.43
2022-11-22T21:11:22.205Z,76.41
2022-11-22T21:13:51.022Z,76.79
2022-11-22T21:16:24.212Z,76.96
2022-11-22T21:18:53.475Z,76.98
2022-11-22T21:21:24.036Z,76.56
2022-11-22T21:23:53.451Z,76.40
2022-11-22T21:26:22.025Z,75.97
2022-11-22T21:28:50.492Z,76.55
2022-11-22T21:31:19.065Z,75.98
2022-11-22T21:33:47.367Z,75.63
2022-11-22T21:36:15.349Z,75.26
2022-11-22T21:38:44.666Z,74.80
2022-11-22T21:44:03.130Z,74.92
2022-11-22T21:46:31.041Z,74.09
2022-11-22T21:48:59.176Z,74.68
2022-11-22T21:51:27.310Z,74.28
2022-11-22T21:53:59.057Z,74.00
2022-11-22T21:56:27.392Z,74.01
2022-11-22T21:58:55.704Z,73.62
2022-11-22T22:01:24.596Z,73.39
2022-11-22T22:03:52.924Z,73.32
2022-11-22T22:06:20.993Z,73.95
2022-11-22T22:08:49.044Z,73.33
2022-11-22T22:11:18.367Z,73.34
2022-11-22T22:13:46.367Z,73.83
2022-11-22T22:16:19.040Z,73.28
2022-11-22T22:18:47.677Z,72.91
2022-11-22T22:21:16.390Z,73.52
2022-11-22T22:23:45.299Z,73.20
2022-11-22T22:26:16.170Z,73.03
2022-11-22T22:28:46.091Z,73.45
2022-11-22T22:31:16.825Z,73.20
2022-11-22T22:33:46.505Z,73.22
2022-11-22T22:36:15.192Z,73.26
2022-11-22T22:38:43.135Z,73.00
2022-11-22T22:41:12.509Z,73.08
2022-11-22T22:43:42.385Z,73.18
2022-11-22T22:46:14.657Z,72.97
2022-11-22T22:48:43.624Z,73.21
2022-11-22T22:51:13.910Z,72.61
2022-11-22T22:53:42.573Z,72.98
2022-11-22T22:56:11.820Z,72.97
2022-11-22T22:58:39.919Z,73.21
2022-11-22T23:01:09.315Z,73.00
2022-11-22T23:04:06.655Z,73.53
2022-11-22T23:06:36.507Z,73.23
2022-11-22T23:09:06.193Z,74.37
2022-11-22T23:11:52.498Z,73.99
2022-11-22T23:14:22.633Z,74.01
2022-11-22T23:16:55.995Z,73.55
2022-11-22T23:19:27.609Z,74.04
2022-11-22T23:21:56.042Z,74.24
2022-11-22T23:24:24.004Z,73.88
2022-11-22T23:26:51.985Z,73.64
2022-11-22T23:29:19.881Z,73.54
2022-11-22T23:31:47.794Z,74.04
2022-11-22T23:34:15.917Z,74.42
2022-11-22T23:36:45.409Z,74.48
2022-11-22T23:39:13.365Z,74.32
2022-11-22T23:41:41.356Z,73.88
2022-11-22T23:44:09.668Z,73.78
2022-11-22T23:46:37.654Z,74.24
2022-11-22T23:49:07.135Z,73.83
2022-11-22T23:51:36.985Z,73.47
2022-11-22T23:54:07.146Z,73.88
2022-11-22T23:56:37.093Z,74.07
2022-11-22T23:59:06.042Z,73.57
